sensor_id;sensor_type;location;lat;lon;timestamp;P1;durP1;ratioP1;P2;durP2;ratioP2
56363;SDS011;42261;52.094;4.326;2023-02-04T00:01:27;18.17;;;2.95;;
56363;SDS011;42261;52.094;4.326;2023-02-04T00:04:12;19.33;;;3.35;;
56363;SDS011;42261;52.094;4.326;2023-02-04T00:06:57;20.42;;;2.78;;
56363;SDS011;42261;52.094;4.326;2023-02-04T00:09:41;12.25;;;2.80;;
56363;SDS011;42261;52.094;4.326;2023-02-04T00:12:25;19.38;;;4.72;;
56363;SDS011;42261;52.094;4.326;2023-02-04T00:15:09;14.30;;;2.70;;
56363;SDS011;42261;52.094;4.326;2023-02-04T00:17:54;9.00;;;2.47;;
56363;SDS011;42261;52.094;4.326;2023-02-04T00:20:37;12.18;;;3.03;;
56363;SDS011;42261;52.094;4.326;2023-02-04T00:23:21;12.68;;;2.47;;
56363;SDS011;42261;52.094;4.326;2023-02-04T00:26:06;17.35;;;3.10;;
56363;SDS011;42261;52.094;4.326;2023-02-04T00:28:50;12.95;;;2.55;;
56363;SDS011;42261;52.094;4.326;2023-02-04T00:31:34;13.32;;;2.80;;
56363;SDS011;42261;52.094;4.326;2023-02-04T00:34:18;10.52;;;2.97;;
56363;SDS011;42261;52.094;4.326;2023-02-04T00:37:02;14.68;;;2.60;;
56363;SDS011;42261;52.094;4.326;2023-02-04T00:39:46;13.88;;;2.60;;
56363;SDS011;42261;52.094;4.326;2023-02-04T00:42:30;17.98;;;2.50;;
56363;SDS011;42261;52.094;4.326;2023-02-04T00:45:14;9.65;;;2.53;;
56363;SDS011;42261;52.094;4.326;2023-02-04T00:47:58;14.40;;;2.40;;
56363;SDS011;42261;52.094;4.326;2023-02-04T00:50:42;9.77;;;2.42;;
56363;SDS011;42261;52.094;4.326;2023-02-04T00:53:27;15.75;;;2.55;;
56363;SDS011;42261;52.094;4.326;2023-02-04T00:56:11;8.32;;;2.83;;
56363;SDS011;42261;52.094;4.326;2023-02-04T00:58:55;16.88;;;2.85;;
56363;SDS011;42261;52.094;4.326;2023-02-04T01:01:39;13.80;;;3.33;;
56363;SDS011;42261;52.094;4.326;2023-02-04T01:04:22;11.77;;;2.72;;
56363;SDS011;42261;52.094;4.326;2023-02-04T01:07:06;15.70;;;2.28;;
56363;SDS011;42261;52.094;4.326;2023-02-04T01:09:52;10.25;;;3.10;;
56363;SDS011;42261;52.094;4.326;2023-02-04T01:12:36;16.65;;;2.92;;
56363;SDS011;42261;52.094;4.326;2023-02-04T01:15:21;8.07;;;2.50;;
56363;SDS011;42261;52.094;4.326;2023-02-04T01:18:05;15.50;;;2.42;;
56363;SDS011;42261;52.094;4.326;2023-02-04T01:20:49;12.40;;;2.20;;
56363;SDS011;42261;52.094;4.326;2023-02-04T01:23:33;11.45;;;2.42;;
56363;SDS011;42261;52.094;4.326;2023-02-04T01:26:17;13.70;;;3.33;;
56363;SDS011;42261;52.094;4.326;2023-02-04T01:29:02;9.18;;;1.73;;
56363;SDS011;42261;52.094;4.326;2023-02-04T01:31:46;13.40;;;2.22;;
56363;SDS011;42261;52.094;4.326;2023-02-04T01:34:29;6.68;;;2.03;;
56363;SDS011;42261;52.094;4.326;2023-02-04T01:37:14;11.80;;;2.17;;
56363;SDS011;42261;52.094;4.326;2023-02-04T01:39:59;15.30;;;2.35;;
56363;SDS011;42261;52.094;4.326;2023-02-04T01:42:43;11.90;;;1.98;;
56363;SDS011;42261;52.094;4.326;2023-02-04T01:45:27;13.20;;;2.25;;
56363;SDS011;42261;52.094;4.326;2023-02-04T01:48:13;10.60;;;2.33;;
56363;SDS011;42261;52.094;4.326;2023-02-04T01:51:09;9.23;;;1.75;;
56363;SDS011;42261;52.094;4.326;2023-02-04T01:53:54;7.00;;;2.40;;
56363;SDS011;42261;52.094;4.326;2023-02-04T01:56:39;12.85;;;1.98;;
56363;SDS011;42261;52.094;4.326;2023-02-04T01:59:25;9.88;;;2.20;;
56363;SDS011;42261;52.094;4.326;2023-02-04T02:05:17;14.35;;;2.97;;
56363;SDS011;42261;52.094;4.326;2023-02-04T02:10:46;17.27;;;4.43;;
56363;SDS011;42261;52.094;4.326;2023-02-04T02:13:31;8.70;;;1.98;;
56363;SDS011;42261;52.094;4.326;2023-02-04T02:16:15;8.90;;;2.40;;
56363;SDS011;42261;52.094;4.326;2023-02-04T02:19:00;13.07;;;2.38;;
56363;SDS011;42261;52.094;4.326;2023-02-04T02:21:46;13.27;;;2.60;;
56363;SDS011;42261;52.094;4.326;2023-02-04T02:24:33;14.23;;;2.95;;
56363;SDS011;42261;52.094;4.326;2023-02-04T02:27:18;12.30;;;2.97;;
56363;SDS011;42261;52.094;4.326;2023-02-04T02:30:03;12.20;;;2.75;;
56363;SDS011;42261;52.094;4.326;2023-02-04T02:32:47;12.55;;;2.85;;
56363;SDS011;42261;52.094;4.326;2023-02-04T02:35:31;15.60;;;3.45;;
56363;SDS011;42261;52.094;4.326;2023-02-04T02:38:16;23.77;;;2.63;;
56363;SDS011;42261;52.094;4.326;2023-02-04T02:41:02;17.88;;;2.60;;
56363;SDS011;42261;52.094;4.326;2023-02-04T02:43:47;15.55;;;2.53;;
56363;SDS011;42261;52.094;4.326;2023-02-04T02:46:31;13.68;;;2.47;;
56363;SDS011;42261;52.094;4.326;2023-02-04T02:49:17;10.65;;;1.90;;
56363;SDS011;42261;52.094;4.326;2023-02-04T02:52:02;16.50;;;4.68;;
56363;SDS011;42261;52.094;4.326;2023-02-04T02:54:47;18.30;;;2.92;;
56363;SDS011;42261;52.094;4.326;2023-02-04T02:57:31;11.45;;;2.70;;
56363;SDS011;42261;52.094;4.326;2023-02-04T03:00:19;11.23;;;2.17;;
56363;SDS011;42261;52.094;4.326;2023-02-04T03:03:05;11.87;;;2.17;;
56363;SDS011;42261;52.094;4.326;2023-02-04T03:05:51;18.10;;;3.80;;
56363;SDS011;42261;52.094;4.326;2023-02-04T03:08:36;13.93;;;2.35;;
56363;SDS011;42261;52.094;4.326;2023-02-04T03:11:21;10.02;;;2.22;;
56363;SDS011;42261;52.094;4.326;2023-02-04T03:14:06;16.73;;;2.45;;
56363;SDS011;42261;52.094;4.326;2023-02-04T03:16:51;17.17;;;2.65;;
56363;SDS011;42261;52.094;4.326;2023-02-04T03:19:35;15.60;;;2.42;;
56363;SDS011;42261;52.094;4.326;2023-02-04T03:22:20;14.60;;;2.42;;
56363;SDS011;42261;52.094;4.326;2023-02-04T03:25:04;22.13;;;3.20;;
56363;SDS011;42261;52.094;4.326;2023-02-04T03:27:48;14.65;;;2.80;;
56363;SDS011;42261;52.094;4.326;2023-02-04T03:30:32;15.90;;;2.65;;
56363;SDS011;42261;52.094;4.326;2023-02-04T03:33:16;14.23;;;2.72;;
56363;SDS011;42261;52.094;4.326;2023-02-04T03:36:01;17.08;;;2.80;;
56363;SDS011;42261;52.094;4.326;2023-02-04T03:38:45;14.02;;;2.50;;
56363;SDS011;42261;52.094;4.326;2023-02-04T03:41:30;12.40;;;2.90;;
56363;SDS011;42261;52.094;4.326;2023-02-04T03:44:13;11.73;;;2.55;;
56363;SDS011;42261;52.094;4.326;2023-02-04T03:46:57;15.20;;;2.85;;
56363;SDS011;42261;52.094;4.326;2023-02-04T03:49:42;13.40;;;2.47;;
56363;SDS011;42261;52.094;4.326;2023-02-04T03:52:27;10.15;;;2.35;;
56363;SDS011;42261;52.094;4.326;2023-02-04T03:55:11;19.42;;;3.10;;
56363;SDS011;42261;52.094;4.326;2023-02-04T03:57:56;20.40;;;3.55;;
56363;SDS011;42261;52.094;4.326;2023-02-04T04:00:40;19.60;;;3.55;;
56363;SDS011;42261;52.094;4.326;2023-02-04T04:03:24;14.40;;;2.25;;
56363;SDS011;42261;52.094;4.326;2023-02-04T04:06:08;16.10;;;4.20;;
56363;SDS011;42261;52.094;4.326;2023-02-04T04:08:53;16.15;;;3.05;;
56363;SDS011;42261;52.094;4.326;2023-02-04T04:11:37;21.80;;;2.72;;
56363;SDS011;42261;52.094;4.326;2023-02-04T04:14:21;12.93;;;2.38;;
56363;SDS011;42261;52.094;4.326;2023-02-04T04:17:05;13.98;;;2.83;;
56363;SDS011;42261;52.094;4.326;2023-02-04T04:19:50;17.08;;;3.00;;
56363;SDS011;42261;52.094;4.326;2023-02-04T04:22:34;15.05;;;2.40;;
56363;SDS011;42261;52.094;4.326;2023-02-04T04:25:18;11.15;;;2.60;;
56363;SDS011;42261;52.094;4.326;2023-02-04T04:28:02;13.07;;;2.80;;
56363;SDS011;42261;52.094;4.326;2023-02-04T04:30:46;26.85;;;4.03;;
56363;SDS011;42261;52.094;4.326;2023-02-04T04:33:30;17.23;;;4.05;;
56363;SDS011;42261;52.094;4.326;2023-02-04T04:36:14;19.15;;;3.28;;
56363;SDS011;42261;52.094;4.326;2023-02-04T04:38:58;22.85;;;3.78;;
56363;SDS011;42261;52.094;4.326;2023-02-04T04:41:42;15.80;;;3.13;;
56363;SDS011;42261;52.094;4.326;2023-02-04T04:44:26;26.40;;;4.18;;
56363;SDS011;42261;52.094;4.326;2023-02-04T04:47:10;20.77;;;4.53;;
56363;SDS011;42261;52.094;4.326;2023-02-04T04:49:54;17.98;;;4.63;;
56363;SDS011;42261;52.094;4.326;2023-02-04T04:52:38;14.43;;;3.83;;
56363;SDS011;42261;52.094;4.326;2023-02-04T04:55:23;16.42;;;3.47;;
56363;SDS011;42261;52.094;4.326;2023-02-04T04:58:07;25.92;;;4.38;;
56363;SDS011;42261;52.094;4.326;2023-02-04T05:00:51;11.88;;;2.90;;
56363;SDS011;42261;52.094;4.326;2023-02-04T05:03:35;19.45;;;4.53;;
56363;SDS011;42261;52.094;4.326;2023-02-04T05:06:19;11.35;;;2.88;;
56363;SDS011;42261;52.094;4.326;2023-02-04T05:11:53;23.05;;;3.28;;
56363;SDS011;42261;52.094;4.326;2023-02-04T05:14:38;26.25;;;3.72;;
56363;SDS011;42261;52.094;4.326;2023-02-04T05:17:22;16.50;;;3.30;;
56363;SDS011;42261;52.094;4.326;2023-02-04T05:20:07;19.88;;;4.47;;
56363;SDS011;42261;52.094;4.326;2023-02-04T05:22:51;21.33;;;3.90;;
56363;SDS011;42261;52.094;4.326;2023-02-04T05:25:36;15.82;;;3.47;;
56363;SDS011;42261;52.094;4.326;2023-02-04T05:28:20;18.23;;;2.90;;
56363;SDS011;42261;52.094;4.326;2023-02-04T05:31:04;18.88;;;3.85;;
56363;SDS011;42261;52.094;4.326;2023-02-04T05:33:48;14.38;;;3.38;;
56363;SDS011;42261;52.094;4.326;2023-02-04T05:36:32;12.32;;;2.28;;
56363;SDS011;42261;52.094;4.326;2023-02-04T05:39:16;24.58;;;3.40;;
56363;SDS011;42261;52.094;4.326;2023-02-04T05:42:01;8.43;;;2.63;;
56363;SDS011;42261;52.094;4.326;2023-02-04T05:44:45;14.25;;;3.13;;
56363;SDS011;42261;52.094;4.326;2023-02-04T05:47:29;13.93;;;2.35;;
56363;SDS011;42261;52.094;4.326;2023-02-04T05:50:14;16.88;;;2.75;;
56363;SDS011;42261;52.094;4.326;2023-02-04T05:52:58;12.55;;;2.80;;
56363;SDS011;42261;52.094;4.326;2023-02-04T05:55:42;19.65;;;2.95;;
56363;SDS011;42261;52.094;4.326;2023-02-04T05:58:26;19.42;;;2.95;;
56363;SDS011;42261;52.094;4.326;2023-02-04T06:01:16;18.63;;;2.97;;
56363;SDS011;42261;52.094;4.326;2023-02-04T06:04:00;13.60;;;4.50;;
56363;SDS011;42261;52.094;4.326;2023-02-04T06:06:44;17.20;;;3.58;;
56363;SDS011;42261;52.094;4.326;2023-02-04T06:09:28;22.23;;;3.53;;
56363;SDS011;42261;52.094;4.326;2023-02-04T06:12:12;11.65;;;2.35;;
56363;SDS011;42261;52.094;4.326;2023-02-04T06:14:56;20.73;;;2.95;;
56363;SDS011;42261;52.094;4.326;2023-02-04T06:17:40;13.77;;;2.97;;
56363;SDS011;42261;52.094;4.326;2023-02-04T06:20:25;16.65;;;4.07;;
56363;SDS011;42261;52.094;4.326;2023-02-04T06:23:09;14.50;;;3.75;;
56363;SDS011;42261;52.094;4.326;2023-02-04T06:25:53;22.55;;;4.45;;
56363;SDS011;42261;52.094;4.326;2023-02-04T06:28:37;13.38;;;3.72;;
56363;SDS011;42261;52.094;4.326;2023-02-04T06:31:21;24.15;;;4.20;;
56363;SDS011;42261;52.094;4.326;2023-02-04T06:34:05;19.40;;;4.07;;
56363;SDS011;42261;52.094;4.326;2023-02-04T06:36:49;19.42;;;6.22;;
56363;SDS011;42261;52.094;4.326;2023-02-04T06:39:34;19.60;;;4.65;;
56363;SDS011;42261;52.094;4.326;2023-02-04T06:42:20;9.45;;;4.32;;
56363;SDS011;42261;52.094;4.326;2023-02-04T06:45:04;21.27;;;5.10;;
56363;SDS011;42261;52.094;4.326;2023-02-04T06:47:48;20.52;;;5.18;;
56363;SDS011;42261;52.094;4.326;2023-02-04T06:50:32;16.35;;;4.20;;
56363;SDS011;42261;52.094;4.326;2023-02-04T06:53:16;21.42;;;5.55;;
56363;SDS011;42261;52.094;4.326;2023-02-04T06:56:00;17.80;;;5.30;;
56363;SDS011;42261;52.094;4.326;2023-02-04T06:58:45;22.52;;;5.57;;
56363;SDS011;42261;52.094;4.326;2023-02-04T07:01:30;20.77;;;4.90;;
56363;SDS011;42261;52.094;4.326;2023-02-04T07:04:14;25.33;;;6.40;;
56363;SDS011;42261;52.094;4.326;2023-02-04T07:06:59;21.55;;;5.40;;
56363;SDS011;42261;52.094;4.326;2023-02-04T07:09:44;21.48;;;6.93;;
56363;SDS011;42261;52.094;4.326;2023-02-04T07:12:29;16.48;;;5.50;;
56363;SDS011;42261;52.094;4.326;2023-02-04T07:15:13;19.08;;;5.50;;
56363;SDS011;42261;52.094;4.326;2023-02-04T07:17:57;17.42;;;5.47;;
56363;SDS011;42261;52.094;4.326;2023-02-04T07:20:41;23.85;;;5.03;;
56363;SDS011;42261;52.094;4.326;2023-02-04T07:23:25;24.25;;;6.07;;
56363;SDS011;42261;52.094;4.326;2023-02-04T07:26:12;20.98;;;4.65;;
56363;SDS011;42261;52.094;4.326;2023-02-04T07:28:56;19.50;;;7.15;;
56363;SDS011;42261;52.094;4.326;2023-02-04T07:31:40;23.50;;;5.13;;
56363;SDS011;42261;52.094;4.326;2023-02-04T07:34:24;19.45;;;4.93;;
56363;SDS011;42261;52.094;4.326;2023-02-04T07:37:08;17.40;;;4.85;;
56363;SDS011;42261;52.094;4.326;2023-02-04T07:39:52;22.83;;;5.20;;
56363;SDS011;42261;52.094;4.326;2023-02-04T07:42:36;18.13;;;4.57;;
56363;SDS011;42261;52.094;4.326;2023-02-04T07:45:20;21.42;;;7.28;;
56363;SDS011;42261;52.094;4.326;2023-02-04T07:48:04;20.40;;;5.22;;
56363;SDS011;42261;52.094;4.326;2023-02-04T07:50:48;28.02;;;6.10;;
56363;SDS011;42261;52.094;4.326;2023-02-04T07:53:32;18.38;;;5.28;;
56363;SDS011;42261;52.094;4.326;2023-02-04T07:56:16;19.75;;;5.70;;
56363;SDS011;42261;52.094;4.326;2023-02-04T07:59:00;17.98;;;5.85;;
56363;SDS011;42261;52.094;4.326;2023-02-04T08:01:47;26.83;;;6.28;;
56363;SDS011;42261;52.094;4.326;2023-02-04T08:04:32;18.63;;;5.85;;
56363;SDS011;42261;52.094;4.326;2023-02-04T08:07:16;20.65;;;5.80;;
56363;SDS011;42261;52.094;4.326;2023-02-04T08:10:01;21.17;;;5.32;;
56363;SDS011;42261;52.094;4.326;2023-02-04T08:12:45;22.33;;;6.18;;
56363;SDS011;42261;52.094;4.326;2023-02-04T08:15:29;19.30;;;5.25;;
56363;SDS011;42261;52.094;4.326;2023-02-04T08:18:13;25.30;;;6.80;;
56363;SDS011;42261;52.094;4.326;2023-02-04T08:20:57;19.92;;;4.68;;
56363;SDS011;42261;52.094;4.326;2023-02-04T08:23:42;32.33;;;7.55;;
56363;SDS011;42261;52.094;4.326;2023-02-04T08:26:26;17.42;;;5.22;;
56363;SDS011;42261;52.094;4.326;2023-02-04T08:29:10;15.13;;;5.13;;
56363;SDS011;42261;52.094;4.326;2023-02-04T08:31:54;19.98;;;5.85;;
56363;SDS011;42261;52.094;4.326;2023-02-04T08:34:38;20.63;;;4.70;;
56363;SDS011;42261;52.094;4.326;2023-02-04T08:37:22;17.52;;;5.00;;
56363;SDS011;42261;52.094;4.326;2023-02-04T08:40:07;21.92;;;5.85;;
56363;SDS011;42261;52.094;4.326;2023-02-04T08:42:52;16.13;;;4.57;;
56363;SDS011;42261;52.094;4.326;2023-02-04T08:45:35;23.17;;;4.72;;
56363;SDS011;42261;52.094;4.326;2023-02-04T08:48:19;19.42;;;5.65;;
56363;SDS011;42261;52.094;4.326;2023-02-04T08:51:03;16.73;;;5.03;;
56363;SDS011;42261;52.094;4.326;2023-02-04T08:53:48;21.70;;;5.57;;
56363;SDS011;42261;52.094;4.326;2023-02-04T08:56:33;22.60;;;4.90;;
56363;SDS011;42261;52.094;4.326;2023-02-04T08:59:21;19.48;;;5.45;;
56363;SDS011;42261;52.094;4.326;2023-02-04T09:02:09;28.05;;;6.25;;
56363;SDS011;42261;52.094;4.326;2023-02-04T09:04:53;22.95;;;5.63;;
56363;SDS011;42261;52.094;4.326;2023-02-04T09:07:37;23.20;;;5.13;;
56363;SDS011;42261;52.094;4.326;2023-02-04T09:10:22;16.90;;;4.57;;
56363;SDS011;42261;52.094;4.326;2023-02-04T09:13:06;14.57;;;5.30;;
56363;SDS011;42261;52.094;4.326;2023-02-04T09:15:54;16.55;;;6.30;;
56363;SDS011;42261;52.094;4.326;2023-02-04T09:18:38;16.25;;;4.78;;
56363;SDS011;42261;52.094;4.326;2023-02-04T09:21:21;15.60;;;5.25;;
56363;SDS011;42261;52.094;4.326;2023-02-04T09:24:05;23.63;;;7.00;;
56363;SDS011;42261;52.094;4.326;2023-02-04T09:26:49;23.45;;;5.38;;
56363;SDS011;42261;52.094;4.326;2023-02-04T09:29:34;14.80;;;4.38;;
56363;SDS011;42261;52.094;4.326;2023-02-04T09:32:18;18.38;;;4.75;;
56363;SDS011;42261;52.094;4.326;2023-02-04T09:35:03;18.05;;;4.00;;
56363;SDS011;42261;52.094;4.326;2023-02-04T09:37:47;21.60;;;5.00;;
56363;SDS011;42261;52.094;4.326;2023-02-04T09:40:35;18.17;;;6.13;;
56363;SDS011;42261;52.094;4.326;2023-02-04T09:43:21;20.15;;;4.68;;
56363;SDS011;42261;52.094;4.326;2023-02-04T09:46:19;14.73;;;5.25;;
56363;SDS011;42261;52.094;4.326;2023-02-04T09:49:03;21.70;;;4.97;;
56363;SDS011;42261;52.094;4.326;2023-02-04T09:51:49;10.48;;;4.00;;
56363;SDS011;42261;52.094;4.326;2023-02-04T09:54:34;18.85;;;4.80;;
56363;SDS011;42261;52.094;4.326;2023-02-04T09:57:19;16.33;;;3.83;;
56363;SDS011;42261;52.094;4.326;2023-02-04T10:00:05;19.95;;;3.53;;
56363;SDS011;42261;52.094;4.326;2023-02-04T10:02:49;17.58;;;4.00;;
56363;SDS011;42261;52.094;4.326;2023-02-04T10:05:34;15.25;;;4.10;;
56363;SDS011;42261;52.094;4.326;2023-02-04T10:08:21;17.20;;;4.35;;
56363;SDS011;42261;52.094;4.326;2023-02-04T10:11:08;13.80;;;3.05;;
56363;SDS011;42261;52.094;4.326;2023-02-04T10:28:56;15.18;;;3.50;;
56363;SDS011;42261;52.094;4.326;2023-02-04T11:04:35;8.30;;;2.60;;
56363;SDS011;42261;52.094;4.326;2023-02-04T11:11:48;17.63;;;3.50;;
56363;SDS011;42261;52.094;4.326;2023-02-04T11:14:32;16.45;;;3.25;;
56363;SDS011;42261;52.094;4.326;2023-02-04T11:17:20;16.73;;;4.88;;
56363;SDS011;42261;52.094;4.326;2023-02-04T11:20:29;22.55;;;5.80;;
56363;SDS011;42261;52.094;4.326;2023-02-04T11:26:14;7.32;;;2.00;;
56363;SDS011;42261;52.094;4.326;2023-02-04T11:34:43;11.80;;;2.90;;
56363;SDS011;42261;52.094;4.326;2023-02-04T11:37:36;10.52;;;1.92;;
56363;SDS011;42261;52.094;4.326;2023-02-04T11:40:30;8.73;;;2.00;;
56363;SDS011;42261;52.094;4.326;2023-02-04T11:43:14;14.20;;;3.53;;
56363;SDS011;42261;52.094;4.326;2023-02-04T11:46:00;13.93;;;2.90;;
56363;SDS011;42261;52.094;4.326;2023-02-04T11:48:46;6.28;;;1.90;;
56363;SDS011;42261;52.094;4.326;2023-02-04T11:51:40;11.38;;;2.10;;
56363;SDS011;42261;52.094;4.326;2023-02-04T11:54:27;11.10;;;2.55;;
56363;SDS011;42261;52.094;4.326;2023-02-04T11:57:12;12.13;;;2.42;;
56363;SDS011;42261;52.094;4.326;2023-02-04T11:59:56;13.93;;;2.35;;
56363;SDS011;42261;52.094;4.326;2023-02-04T12:02:43;10.75;;;2.10;;
56363;SDS011;42261;52.094;4.326;2023-02-04T12:08:42;13.40;;;3.38;;
56363;SDS011;42261;52.094;4.326;2023-02-04T12:11:27;11.95;;;3.95;;
56363;SDS011;42261;52.094;4.326;2023-02-04T12:16:59;10.93;;;2.53;;
56363;SDS011;42261;52.094;4.326;2023-02-04T12:19:43;12.93;;;2.47;;
56363;SDS011;42261;52.094;4.326;2023-02-04T12:22:27;12.05;;;3.15;;
56363;SDS011;42261;52.094;4.326;2023-02-04T12:25:11;9.77;;;2.83;;
56363;SDS011;42261;52.094;4.326;2023-02-04T12:27:59;18.00;;;3.90;;
56363;SDS011;42261;52.094;4.326;2023-02-04T12:30:43;10.65;;;2.85;;
56363;SDS011;42261;52.094;4.326;2023-02-04T12:33:28;15.45;;;3.22;;
56363;SDS011;42261;52.094;4.326;2023-02-04T12:36:12;12.40;;;3.63;;
56363;SDS011;42261;52.094;4.326;2023-02-04T12:38:56;11.90;;;4.07;;
56363;SDS011;42261;52.094;4.326;2023-02-04T12:41:43;10.88;;;3.13;;
56363;SDS011;42261;52.094;4.326;2023-02-04T12:44:30;13.10;;;3.90;;
56363;SDS011;42261;52.094;4.326;2023-02-04T12:47:14;10.32;;;2.95;;
56363;SDS011;42261;52.094;4.326;2023-02-04T12:49:59;7.13;;;2.50;;
56363;SDS011;42261;52.094;4.326;2023-02-04T12:52:43;10.25;;;2.55;;
56363;SDS011;42261;52.094;4.326;2023-02-04T12:55:27;9.02;;;2.30;;
56363;SDS011;42261;52.094;4.326;2023-02-04T12:58:12;10.45;;;2.30;;
56363;SDS011;42261;52.094;4.326;2023-02-04T13:00:56;10.38;;;2.45;;
56363;SDS011;42261;52.094;4.326;2023-02-04T13:03:40;8.20;;;2.25;;
56363;SDS011;42261;52.094;4.326;2023-02-04T13:06:24;6.57;;;3.20;;
56363;SDS011;42261;52.094;4.326;2023-02-04T13:09:08;11.38;;;2.97;;
56363;SDS011;42261;52.094;4.326;2023-02-04T13:11:52;13.73;;;3.22;;
56363;SDS011;42261;52.094;4.326;2023-02-04T13:14:37;7.65;;;3.00;;
56363;SDS011;42261;52.094;4.326;2023-02-04T13:17:21;6.55;;;2.83;;
56363;SDS011;42261;52.094;4.326;2023-02-04T13:20:06;11.90;;;4.63;;
56363;SDS011;42261;52.094;4.326;2023-02-04T13:22:50;9.10;;;3.67;;
56363;SDS011;42261;52.094;4.326;2023-02-04T13:25:34;9.10;;;3.90;;
56363;SDS011;42261;52.094;4.326;2023-02-04T13:28:18;14.38;;;4.68;;
56363;SDS011;42261;52.094;4.326;2023-02-04T13:31:03;13.60;;;4.20;;
56363;SDS011;42261;52.094;4.326;2023-02-04T13:33:47;15.18;;;4.22;;
56363;SDS011;42261;52.094;4.326;2023-02-04T13:36:35;13.77;;;3.95;;
56363;SDS011;42261;52.094;4.326;2023-02-04T13:39:18;16.38;;;6.18;;
56363;SDS011;42261;52.094;4.326;2023-02-04T13:42:03;13.38;;;4.70;;
56363;SDS011;42261;52.094;4.326;2023-02-04T13:44:48;13.90;;;4.03;;
56363;SDS011;42261;52.094;4.326;2023-02-04T13:47:32;22.88;;;4.68;;
56363;SDS011;42261;52.094;4.326;2023-02-04T13:50:16;17.33;;;4.68;;
56363;SDS011;42261;52.094;4.326;2023-02-04T13:53:00;17.42;;;4.28;;
56363;SDS011;42261;52.094;4.326;2023-02-04T13:55:45;16.55;;;4.25;;
56363;SDS011;42261;52.094;4.326;2023-02-04T13:58:28;12.35;;;4.68;;
56363;SDS011;42261;52.094;4.326;2023-02-04T14:01:13;10.13;;;4.13;;
56363;SDS011;42261;52.094;4.326;2023-02-04T14:03:57;14.23;;;5.90;;
56363;SDS011;42261;52.094;4.326;2023-02-04T14:06:41;14.77;;;5.45;;
56363;SDS011;42261;52.094;4.326;2023-02-04T14:09:27;15.70;;;4.63;;
56363;SDS011;42261;52.094;4.326;2023-02-04T14:12:11;9.77;;;5.10;;
56363;SDS011;42261;52.094;4.326;2023-02-04T14:14:56;15.57;;;5.03;;
56363;SDS011;42261;52.094;4.326;2023-02-04T14:17:41;16.80;;;6.22;;
56363;SDS011;42261;52.094;4.326;2023-02-04T14:20:26;19.30;;;6.97;;
56363;SDS011;42261;52.094;4.326;2023-02-04T14:23:10;14.80;;;6.72;;
56363;SDS011;42261;52.094;4.326;2023-02-04T14:25:57;26.65;;;11.98;;
56363;SDS011;42261;52.094;4.326;2023-02-04T14:28:42;14.02;;;6.22;;
56363;SDS011;42261;52.094;4.326;2023-02-04T14:31:26;15.27;;;5.88;;
56363;SDS011;42261;52.094;4.326;2023-02-04T14:34:10;12.43;;;6.32;;
56363;SDS011;42261;52.094;4.326;2023-02-04T14:36:55;16.92;;;6.50;;
56363;SDS011;42261;52.094;4.326;2023-02-04T14:39:39;14.73;;;5.88;;
56363;SDS011;42261;52.094;4.326;2023-02-04T14:42:23;11.52;;;6.43;;
56363;SDS011;42261;52.094;4.326;2023-02-04T14:45:08;11.57;;;5.40;;
56363;SDS011;42261;52.094;4.326;2023-02-04T14:47:52;17.45;;;6.30;;
56363;SDS011;42261;52.094;4.326;2023-02-04T14:50:39;11.43;;;6.07;;
56363;SDS011;42261;52.094;4.326;2023-02-04T14:53:23;14.90;;;6.05;;
56363;SDS011;42261;52.094;4.326;2023-02-04T14:56:07;16.63;;;5.53;;
56363;SDS011;42261;52.094;4.326;2023-02-04T14:58:51;13.13;;;5.45;;
56363;SDS011;42261;52.094;4.326;2023-02-04T15:01:35;14.38;;;6.57;;
56363;SDS011;42261;52.094;4.326;2023-02-04T15:04:19;12.85;;;6.88;;
56363;SDS011;42261;52.094;4.326;2023-02-04T15:07:05;16.30;;;7.03;;
56363;SDS011;42261;52.094;4.326;2023-02-04T15:09:49;14.48;;;6.50;;
56363;SDS011;42261;52.094;4.326;2023-02-04T15:12:33;13.30;;;7.68;;
56363;SDS011;42261;52.094;4.326;2023-02-04T15:15:18;15.77;;;7.28;;
56363;SDS011;42261;52.094;4.326;2023-02-04T15:18:02;16.63;;;7.43;;
56363;SDS011;42261;52.094;4.326;2023-02-04T15:20:46;16.05;;;7.35;;
56363;SDS011;42261;52.094;4.326;2023-02-04T15:23:30;15.60;;;8.38;;
56363;SDS011;42261;52.094;4.326;2023-02-04T15:26:14;16.33;;;7.45;;
56363;SDS011;42261;52.094;4.326;2023-02-04T15:28:58;12.82;;;7.47;;
56363;SDS011;42261;52.094;4.326;2023-02-04T15:31:45;15.43;;;8.32;;
56363;SDS011;42261;52.094;4.326;2023-02-04T15:34:29;19.92;;;8.98;;
56363;SDS011;42261;52.094;4.326;2023-02-04T15:37:13;16.48;;;8.25;;
56363;SDS011;42261;52.094;4.326;2023-02-04T15:39:57;18.33;;;9.25;;
56363;SDS011;42261;52.094;4.326;2023-02-04T15:42:41;20.38;;;9.15;;
56363;SDS011;42261;52.094;4.326;2023-02-04T15:45:26;16.52;;;8.85;;
56363;SDS011;42261;52.094;4.326;2023-02-04T15:48:10;23.63;;;8.68;;
56363;SDS011;42261;52.094;4.326;2023-02-04T15:50:54;20.92;;;10.48;;
56363;SDS011;42261;52.094;4.326;2023-02-04T15:53:38;20.15;;;9.07;;
56363;SDS011;42261;52.094;4.326;2023-02-04T15:56:23;16.33;;;9.25;;
56363;SDS011;42261;52.094;4.326;2023-02-04T15:59:07;18.05;;;8.88;;
56363;SDS011;42261;52.094;4.326;2023-02-04T16:01:52;19.63;;;8.80;;
56363;SDS011;42261;52.094;4.326;2023-02-04T16:04:36;17.50;;;8.70;;
56363;SDS011;42261;52.094;4.326;2023-02-04T16:07:20;19.08;;;10.18;;
56363;SDS011;42261;52.094;4.326;2023-02-04T16:10:03;18.92;;;9.98;;
56363;SDS011;42261;52.094;4.326;2023-02-04T16:12:48;23.52;;;10.23;;
56363;SDS011;42261;52.094;4.326;2023-02-04T16:15:32;22.13;;;9.77;;
56363;SDS011;42261;52.094;4.326;2023-02-04T16:18:16;17.77;;;10.13;;
56363;SDS011;42261;52.094;4.326;2023-02-04T16:21:00;20.75;;;9.27;;
56363;SDS011;42261;52.094;4.326;2023-02-04T16:23:44;18.13;;;10.52;;
56363;SDS011;42261;52.094;4.326;2023-02-04T16:26:29;21.65;;;11.52;;
56363;SDS011;42261;52.094;4.326;2023-02-04T16:29:18;20.17;;;10.20;;
56363;SDS011;42261;52.094;4.326;2023-02-04T16:32:02;25.55;;;11.10;;
56363;SDS011;42261;52.094;4.326;2023-02-04T16:34:46;19.50;;;10.70;;
56363;SDS011;42261;52.094;4.326;2023-02-04T16:37:30;21.10;;;9.75;;
56363;SDS011;42261;52.094;4.326;2023-02-04T16:40:14;19.58;;;9.70;;
56363;SDS011;42261;52.094;4.326;2023-02-04T16:42:58;16.00;;;8.15;;
56363;SDS011;42261;52.094;4.326;2023-02-04T16:45:42;16.75;;;8.65;;
56363;SDS011;42261;52.094;4.326;2023-02-04T16:48:26;14.60;;;6.80;;
56363;SDS011;42261;52.094;4.326;2023-02-04T16:51:11;18.58;;;7.25;;
56363;SDS011;42261;52.094;4.326;2023-02-04T16:53:55;14.88;;;6.40;;
56363;SDS011;42261;52.094;4.326;2023-02-04T16:56:39;19.08;;;7.07;;
56363;SDS011;42261;52.094;4.326;2023-02-04T16:59:23;16.60;;;7.10;;
56363;SDS011;42261;52.094;4.326;2023-02-04T17:02:08;15.00;;;6.32;;
56363;SDS011;42261;52.094;4.326;2023-02-04T17:04:53;21.25;;;6.70;;
56363;SDS011;42261;52.094;4.326;2023-02-04T17:07:37;19.73;;;7.18;;
56363;SDS011;42261;52.094;4.326;2023-02-04T17:10:21;16.92;;;7.90;;
56363;SDS011;42261;52.094;4.326;2023-02-04T17:13:25;19.45;;;8.05;;
56363;SDS011;42261;52.094;4.326;2023-02-04T17:16:09;18.90;;;7.20;;
56363;SDS011;42261;52.094;4.326;2023-02-04T17:18:54;19.13;;;8.18;;
56363;SDS011;42261;52.094;4.326;2023-02-04T17:21:39;17.52;;;7.82;;
56363;SDS011;42261;52.094;4.326;2023-02-04T17:24:23;13.60;;;7.47;;
56363;SDS011;42261;52.094;4.326;2023-02-04T17:27:11;15.57;;;6.97;;
56363;SDS011;42261;52.094;4.326;2023-02-04T17:29:55;15.60;;;6.53;;
56363;SDS011;42261;52.094;4.326;2023-02-04T17:32:39;14.23;;;7.70;;
56363;SDS011;42261;52.094;4.326;2023-02-04T17:35:24;21.80;;;8.55;;